Das Wetter fuer Meerbusch Buederich
Wetterdaten: aktuell Donnerstag, 24.09.2020 11:10
Datum Zeit Temp.Mast Feuchte Mast Sonnenstand Luftdruck Regen Wind Richtung Richtung Sonnenschein Taupunkt Windchill Windböen
24.09.2020 11:10 16,1 °C 65 % 2 cb 998,0 hPa 0,0 mm 11,5 km/h O-SO 120 ° 2 min 9,5 °C 16,1 °C 11,5 km/h
24.09.2020 11:05 16,0 °C 65 % 2 cb 998,0 hPa 0,0 mm 12,1 km/h W-NW 285 ° 2 min 9,4 °C 16,0 °C 12,1 km/h
24.09.2020 11:00 16,2 °C 65 % 6 cb 998,0 hPa 0,0 mm 9,7 km/h S-SO 155 ° 6 min 9,6 °C 16,2 °C 9,7 km/h
24.09.2020 10:55 16,0 °C 65 % 3 cb 998,0 hPa 0,0 mm 4,8 km/h SO 125 ° 3 min 9,4 °C 16,0 °C 4,8 km/h
24.09.2020 10:50 16,2 °C 65 % 6 cb 998,0 hPa 0,0 mm 10,9 km/h O-NO 75 ° 6 min 9,6 °C 16,2 °C 10,9 km/h
24.09.2020 10:45 16,1 °C 66 % 4 cb 998,0 hPa 0,0 mm 10,9 km/h SW 225 ° 4 min 9,7 °C 16,1 °C 10,9 km/h
24.09.2020 10:40 15,9 °C 67 % 6 cb 998,0 hPa 0,0 mm 8,5 km/h O-SO 120 ° 6 min 9,8 °C 15,9 °C 8,5 km/h
24.09.2020 10:35 15,6 °C 68 % 5 cb 998,0 hPa 0,0 mm 10,3 km/h S-SO 155 ° 5 min 9,7 °C 15,6 °C 10,3 km/h
24.09.2020 10:30 15,3 °C 68 % 5 cb 998,0 hPa 0,0 mm 20,6 km/h SO 135 ° 5 min 9,4 °C 15,3 °C 20,6 km/h
24.09.2020 10:25 15,3 °C 69 % 4 cb 998,0 hPa 0,0 mm 14,5 km/h O-SO 115 ° 4 min 9,6 °C 15,3 °C 14,5 km/h
24.09.2020 10:20 15,2 °C 69 % 5 cb 998,0 hPa 0,0 mm 15,7 km/h S-SO 155 ° 5 min 9,6 °C 15,2 °C 15,7 km/h
24.09.2020 10:15 14,8 °C 71 % 6 cb 998,0 hPa 0,0 mm 14,5 km/h S-SO 165 ° 6 min 9,6 °C 14,8 °C 14,5 km/h
24.09.2020 10:10 14,6 °C 72 % 4 cb 998,0 hPa 0,0 mm 13,3 km/h S 185 ° 4 min 9,6 °C 14,6 °C 13,3 km/h
24.09.2020 10:05 14,4 °C 73 % 3 cb 998,0 hPa 0,0 mm 10,9 km/h SO 135 ° 3 min 9,6 °C 14,4 °C 10,9 km/h
24.09.2020 10:00 14,3 °C 73 % 3 cb 998,0 hPa 0,0 mm 16,3 km/h S 185 ° 3 min 9,5 °C 14,3 °C 16,3 km/h
24.09.2020 09:55 14,2 °C 73 % 0 cb 998,0 hPa 0,0 mm 12,1 km/h SO 140 ° 0 min 9,4 °C 14,2 °C 12,1 km/h
24.09.2020 09:50 14,4 °C 72 % 0 cb 998,0 hPa 0,0 mm 9,7 km/h SW 220 ° 0 min 9,4 °C 14,4 °C 9,7 km/h
24.09.2020 09:45 14,4 °C 72 % 3 cb 998,0 hPa 0,0 mm 13,3 km/h N 10 ° 3 min 9,4 °C 14,4 °C 13,3 km/h
24.09.2020 09:40 14,7 °C 72 % 6 cb 998,0 hPa 0,0 mm 9,7 km/h NW 305 ° 6 min 9,7 °C 14,7 °C 9,7 km/h
24.09.2020 09:35 14,6 °C 72 % 5 cb 998,0 hPa 0,0 mm 12,1 km/h N 5 ° 5 min 9,6 °C 14,6 °C 12,1 km/h
24.09.2020 09:30 14,5 °C 72 % 4 cb 998,0 hPa 0,0 mm 10,9 km/h SW 235 ° 4 min 9,5 °C 14,5 °C 10,9 km/h
24.09.2020 09:25 14,4 °C 72 % 5 cb 997,0 hPa 0,0 mm 11,5 km/h NO 45 ° 5 min 9,4 °C 14,4 °C 11,5 km/h
24.09.2020 09:20 14,6 °C 73 % 5 cb 997,0 hPa 0,0 mm 9,7 km/h N-NW 345 ° 5 min 9,8 °C 14,6 °C 9,7 km/h
24.09.2020 09:15 14,4 °C 73 % 5 cb 997,0 hPa 0,0 mm 7,3 km/h NO 55 ° 5 min 9,6 °C 14,4 °C 7,3 km/h
24.09.2020 09:10 14,3 °C 73 % 5 cb 998,0 hPa 0,0 mm 10,3 km/h S 175 ° 5 min 9,5 °C 14,3 °C 10,3 km/h
24.09.2020 09:05 14,2 °C 74 % 5 cb 998,0 hPa 0,0 mm 10,3 km/h S-SO 155 ° 5 min 9,6 °C 14,2 °C 10,3 km/h
24.09.2020 09:00 14,3 °C 74 % 5 cb 998,0 hPa 0,0 mm 6,1 km/h S 185 ° 5 min 9,7 °C 14,3 °C 6,1 km/h
24.09.2020 08:55 14,1 °C 74 % 5 cb 998,0 hPa 0,0 mm 4,2 km/h S-SO 150 ° 5 min 9,5 °C 14,1 °C 4,2 km/h
24.09.2020 08:50 13,9 °C 75 % 5 cb 998,0 hPa 0,0 mm 10,9 km/h SW 215 ° 5 min 9,5 °C 13,9 °C 10,9 km/h
24.09.2020 08:45 13,7 °C 75 % 5 cb 998,0 hPa 0,0 mm 9,1 km/h NW 320 ° 5 min 9,3 °C 13,7 °C 9,1 km/h
24.09.2020 08:40 13,6 °C 76 % 5 cb 998,0 hPa 0,0 mm 6,7 km/h S 190 ° 5 min 9,4 °C 13,6 °C 6,7 km/h
24.09.2020 08:35 13,4 °C 77 % 5 cb 998,0 hPa 0,0 mm 8,5 km/h NW 310 ° 5 min 9,5 °C 13,4 °C 8,5 km/h
24.09.2020 08:30 13,2 °C 78 % 5 cb 998,0 hPa 0,0 mm 13,3 km/h S 180 ° 5 min 9,4 °C 13,2 °C 13,3 km/h
24.09.2020 08:25 13,0 °C 78 % 6 cb 998,0 hPa 0,0 mm 9,7 km/h SW 225 ° 6 min 9,3 °C 13,0 °C 9,7 km/h
24.09.2020 08:20 12,7 °C 79 % 2 cb 998,0 hPa 0,0 mm 9,7 km/h W-NW 285 ° 2 min 9,2 °C 12,7 °C 9,7 km/h
24.09.2020 08:15 12,5 °C 80 % 0 cb 998,0 hPa 0,0 mm 13,9 km/h W-SW 250 ° 0 min 9,1 °C 12,5 °C 13,9 km/h
24.09.2020 08:10 12,5 °C 80 % 0 cb 997,0 hPa 0,0 mm 12,1 km/h O-SO 110 ° 0 min 9,1 °C 12,5 °C 12,1 km/h
24.09.2020 08:05 12,4 °C 81 % 0 cb 997,0 hPa 0,0 mm 10,9 km/h W-NW 285 ° 0 min 9,2 °C 12,4 °C 10,9 km/h
24.09.2020 08:00 12,4 °C 81 % 0 cb 997,0 hPa 0,0 mm 7,3 km/h N-NO 30 ° 0 min 9,2 °C 12,4 °C 7,3 km/h
24.09.2020 07:55 12,4 °C 81 % 0 cb 997,0 hPa 0,0 mm 7,9 km/h O-SO 115 ° 0 min 9,2 °C 12,4 °C 7,9 km/h
24.09.2020 07:50 12,4 °C 81 % 0 cb 997,0 hPa 0,0 mm 5,4 km/h NW 310 ° 0 min 9,2 °C 12,4 °C 5,4 km/h
24.09.2020 07:45 12,4 °C 81 % 0 cb 997,0 hPa 0,0 mm 13,9 km/h SO 140 ° 0 min 9,2 °C 12,4 °C 13,9 km/h
24.09.2020 07:40 12,4 °C 81 % 0 cb 997,0 hPa 0,0 mm 9,7 km/h W 270 ° 0 min 9,2 °C 12,4 °C 9,7 km/h
24.09.2020 07:35 12,4 °C 81 % 0 cb 997,0 hPa 0,0 mm 9,7 km/h O-NO 65 ° 0 min 9,2 °C 12,4 °C 9,7 km/h
24.09.2020 07:30 12,4 °C 81 % 0 cb 997,0 hPa 0,0 mm 7,3 km/h N-NO 30 ° 0 min 9,2 °C 12,4 °C 7,3 km/h
24.09.2020 07:25 12,5 °C 81 % 0 cb 997,0 hPa 0,0 mm 6,1 km/h S 180 ° 0 min 9,3 °C 12,5 °C 6,1 km/h
24.09.2020 07:21 12,5 °C 81 % 0 cb 1002,6 hPa 0,0 mm 6,1 km/h W-NW 285 ° 0 min 9,3 °C 12,5 °C 6,1 km/h
24.09.2020 07:20 12,5 °C 81 % 0 cb 1002,6 hPa 0,0 mm 6,1 km/h W-NW 285 ° 0 min 9,3 °C 12,5 °C 6,1 km/h
24.09.2020 07:15 12,5 °C 81 % 0 cb 1002,6 hPa 0,0 mm 3,6 km/h N 5 ° 0 min 9,3 °C 12,5 °C 3,6 km/h
24.09.2020 07:10 12,5 °C 81 % 0 cb 1002,6 hPa 0,0 mm 7,3 km/h O-SO 120 ° 0 min 9,3 °C 12,5 °C 7,3 km/h
24.09.2020 07:05 12,5 °C 81 % 0 cb 1001,6 hPa 0,0 mm 3,6 km/h NW 325 ° 0 min 9,3 °C 12,5 °C 3,6 km/h
24.09.2020 07:00 12,6 °C 81 % 0 cb 1001,6 hPa 0,0 mm 4,8 km/h O-NO 70 ° 0 min 9,4 °C 12,6 °C 4,8 km/h
24.09.2020 06:55 12,6 °C 81 % 0 cb 1001,6 hPa 0,0 mm 6,7 km/h SW 235 ° 0 min 9,4 °C 12,6 °C 6,7 km/h
24.09.2020 06:50 12,7 °C 81 % 0 cb 1002,6 hPa 0,0 mm 9,7 km/h SO 145 ° 0 min 9,5 °C 12,7 °C 9,7 km/h
24.09.2020 06:45 12,8 °C 81 % 0 cb 1002,6 hPa 0,0 mm 6,7 km/h SW 225 ° 0 min 9,6 °C 12,8 °C 6,7 km/h
24.09.2020 06:40 12,8 °C 81 % 0 cb 1002,6 hPa 0,0 mm 3,0 km/h O 95 ° 0 min 9,6 °C 12,8 °C 3,0 km/h
24.09.2020 06:35 12,8 °C 81 % 0 cb 1002,6 hPa 0,0 mm 7,3 km/h O 95 ° 0 min 9,6 °C 12,8 °C 7,3 km/h
24.09.2020 06:30 12,9 °C 81 % 0 cb 1002,6 hPa 0,0 mm 7,3 km/h S 180 ° 0 min 9,7 °C 12,9 °C 7,3 km/h
24.09.2020 06:25 12,9 °C 81 % 0 cb 1002,6 hPa 0,0 mm 4,8 km/h W-SW 255 ° 0 min 9,7 °C 12,9 °C 4,8 km/h
24.09.2020 06:20 12,9 °C 81 % 0 cb 1001,6 hPa 0,0 mm 6,1 km/h S-SW 210 ° 0 min 9,7 °C 12,9 °C 6,1 km/h
24.09.2020 06:15 13,0 °C 81 % 0 cb 1001,6 hPa 0,0 mm 6,1 km/h O-SO 115 ° 0 min 9,8 °C 13,0 °C 6,1 km/h
24.09.2020 06:10 13,0 °C 81 % 0 cb 1001,6 hPa 0,0 mm 7,9 km/h NW 315 ° 0 min 9,8 °C 13,0 °C 7,9 km/h
24.09.2020 06:05 13,0 °C 81 % 0 cb 1001,6 hPa 0,0 mm 7,3 km/h W-SW 255 ° 0 min 9,8 °C 13,0 °C 7,3 km/h
24.09.2020 06:00 13,1 °C 81 % 0 cb 1001,6 hPa 0,0 mm 6,7 km/h SW 215 ° 0 min 9,9 °C 13,1 °C 6,7 km/h
24.09.2020 05:55 13,2 °C 81 % 0 cb 1001,6 hPa 0,0 mm 4,8 km/h NW 325 ° 0 min 10,0 °C 13,2 °C 4,8 km/h
24.09.2020 05:50 13,2 °C 80 % 0 cb 1001,6 hPa 0,0 mm 12,7 km/h S 180 ° 0 min 9,8 °C 13,2 °C 12,7 km/h
24.09.2020 05:45 13,3 °C 80 % 0 cb 1001,6 hPa 0,0 mm 5,4 km/h SO 130 ° 0 min 9,9 °C 13,3 °C 5,4 km/h
24.09.2020 05:40 13,4 °C 80 % 0 cb 1001,6 hPa 0,0 mm 8,5 km/h NO 45 ° 0 min 10,0 °C 13,4 °C 8,5 km/h
24.09.2020 05:35 13,4 °C 80 % 0 cb 1001,6 hPa 0,0 mm 10,9 km/h S-SW 200 ° 0 min 10,0 °C 13,4 °C 10,9 km/h
24.09.2020 05:30 13,4 °C 80 % 0 cb 1001,6 hPa 0,0 mm 6,1 km/h SW 215 ° 0 min 10,0 °C 13,4 °C 6,1 km/h
24.09.2020 05:25 13,4 °C 80 % 0 cb 1001,6 hPa 0,0 mm 7,9 km/h O-SO 110 ° 0 min 10,0 °C 13,4 °C 7,9 km/h
24.09.2020 05:20 13,5 °C 80 % 0 cb 1000,6 hPa 0,0 mm 7,3 km/h O 90 ° 0 min 10,1 °C 13,5 °C 7,3 km/h
24.09.2020 05:15 13,6 °C 80 % 0 cb 1000,6 hPa 0,0 mm 4,8 km/h NW 305 ° 0 min 10,2 °C 13,6 °C 4,8 km/h
24.09.2020 05:10 13,7 °C 80 % 0 cb 1000,6 hPa 0,0 mm 10,9 km/h SO 140 ° 0 min 10,3 °C 13,7 °C 10,9 km/h
24.09.2020 05:05 13,7 °C 80 % 0 cb 1000,6 hPa 0,0 mm 3,6 km/h W 265 ° 0 min 10,3 °C 13,7 °C 3,6 km/h
24.09.2020 05:00 13,9 °C 79 % 0 cb 1000,6 hPa 0,0 mm 10,9 km/h N-NO 30 ° 0 min 10,3 °C 13,9 °C 10,9 km/h
24.09.2020 04:55 13,9 °C 79 % 0 cb 1000,6 hPa 0,0 mm 7,3 km/h N 350 ° 0 min 10,3 °C 13,9 °C 7,3 km/h
24.09.2020 04:50 14,0 °C 79 % 0 cb 1000,6 hPa 0,0 mm 10,9 km/h W 260 ° 0 min 10,4 °C 14,0 °C 10,9 km/h
24.09.2020 04:45 14,0 °C 79 % 0 cb 1000,6 hPa 0,0 mm 8,5 km/h SW 235 ° 0 min 10,4 °C 14,0 °C 8,5 km/h
24.09.2020 04:40 14,1 °C 79 % 0 cb 1000,6 hPa 0,0 mm 11,5 km/h S 180 ° 0 min 10,5 °C 14,1 °C 11,5 km/h
24.09.2020 04:35 14,2 °C 79 % 0 cb 1000,6 hPa 0,0 mm 9,7 km/h O 100 ° 0 min 10,6 °C 14,2 °C 9,7 km/h
24.09.2020 04:30 14,3 °C 79 % 0 cb 1000,6 hPa 0,0 mm 9,7 km/h NW 305 ° 0 min 10,7 °C 14,3 °C 9,7 km/h
24.09.2020 04:25 14,4 °C 79 % 0 cb 1000,6 hPa 0,0 mm 9,1 km/h SW 220 ° 0 min 10,8 °C 14,4 °C 9,1 km/h
24.09.2020 04:20 14,6 °C 79 % 0 cb 1000,6 hPa 0,0 mm 8,5 km/h NO 50 ° 0 min 11,0 °C 14,6 °C 8,5 km/h
24.09.2020 04:15 14,9 °C 79 % 0 cb 1000,6 hPa 0,0 mm 13,9 km/h NW 310 ° 0 min 11,3 °C 14,9 °C 13,9 km/h
24.09.2020 04:10 15,2 °C 79 % 0 cb 1000,6 hPa 0,0 mm 17,6 km/h SW 235 ° 0 min 11,6 °C 15,2 °C 17,6 km/h
24.09.2020 04:05 15,7 °C 80 % 0 cb 999,5 hPa 0,0 mm 12,7 km/h N 5 ° 0 min 12,3 °C 15,7 °C 12,7 km/h
24.09.2020 04:00 15,9 °C 81 % 0 cb 999,5 hPa 0,0 mm 24,2 km/h S-SO 150 ° 0 min 12,6 °C 15,9 °C 24,2 km/h
24.09.2020 03:55 16,1 °C 82 % 0 cb 999,5 hPa 0,3 mm 16,9 km/h W-NW 290 ° 0 min 13,0 °C 16,1 °C 16,9 km/h
24.09.2020 03:50 16,6 °C 82 % 0 cb 998,5 hPa 0,3 mm 26,0 km/h O 85 ° 0 min 13,5 °C 16,6 °C 26,0 km/h
24.09.2020 03:45 16,7 °C 82 % 0 cb 998,5 hPa 0,3 mm 10,3 km/h O-NO 60 ° 0 min 13,6 °C 16,7 °C 10,3 km/h
24.09.2020 03:40 16,6 °C 82 % 0 cb 998,5 hPa 0,0 mm 11,5 km/h NO 35 ° 0 min 13,5 °C 16,6 °C 11,5 km/h
24.09.2020 03:35 16,5 °C 83 % 0 cb 998,5 hPa 0,0 mm 10,3 km/h S-SW 210 ° 0 min 13,6 °C 16,5 °C 10,3 km/h
24.09.2020 03:30 16,4 °C 83 % 0 cb 998,5 hPa 0,0 mm 4,8 km/h SO 135 ° 0 min 13,5 °C 16,4 °C 4,8 km/h
24.09.2020 03:25 16,4 °C 84 % 0 cb 998,5 hPa 0,0 mm 7,9 km/h S 185 ° 0 min 13,7 °C 16,4 °C 7,9 km/h
24.09.2020 03:20 16,3 °C 84 % 0 cb 998,5 hPa 0,0 mm 9,7 km/h S-SW 200 ° 0 min 13,6 °C 16,3 °C 9,7 km/h
24.09.2020 03:15 16,3 °C 85 % 0 cb 998,5 hPa 0,0 mm 6,1 km/h S-SW 210 ° 0 min 13,8 °C 16,3 °C 6,1 km/h
24.09.2020 03:10 16,3 °C 85 % 0 cb 998,5 hPa 0,0 mm 6,1 km/h SO 145 ° 0 min 13,8 °C 16,3 °C 6,1 km/h
24.09.2020 03:05 16,2 °C 85 % 0 cb 998,5 hPa 0,0 mm 3,6 km/h S-SW 200 ° 0 min 13,7 °C 16,2 °C 3,6 km/h
24.09.2020 03:00 16,2 °C 85 % 0 cb 998,5 hPa 0,0 mm 4,2 km/h W 270 ° 0 min 13,7 °C 16,2 °C 4,2 km/h
24.09.2020 02:55 16,2 °C 85 % 0 cb 998,5 hPa 0,0 mm 7,9 km/h W 270 ° 0 min 13,7 °C 16,2 °C 7,9 km/h
24.09.2020 02:50 16,2 °C 85 % 0 cb 998,5 hPa 0,0 mm 6,7 km/h S-SW 205 ° 0 min 13,7 °C 16,2 °C 6,7 km/h
24.09.2020 02:45 16,2 °C 85 % 0 cb 998,5 hPa 0,0 mm 4,8 km/h SW 230 ° 0 min 13,7 °C 16,2 °C 4,8 km/h
24.09.2020 02:40 16,2 °C 85 % 0 cb 998,5 hPa 0,0 mm 4,8 km/h W-SW 250 ° 0 min 13,7 °C 16,2 °C 4,8 km/h
24.09.2020 02:35 16,1 °C 85 % 0 cb 999,5 hPa 0,0 mm 4,8 km/h SW 225 ° 0 min 13,6 °C 16,1 °C 4,8 km/h
24.09.2020 02:30 16,2 °C 85 % 0 cb 999,5 hPa 0,0 mm 2,4 km/h N-NO 25 ° 0 min 13,7 °C 16,2 °C 2,4 km/h
24.09.2020 02:25 16,2 °C 84 % 0 cb 999,5 hPa 0,0 mm 2,4 km/h O-NO 65 ° 0 min 13,5 °C 16,2 °C 2,4 km/h
24.09.2020 02:20 16,3 °C 84 % 0 cb 998,5 hPa 0,3 mm 8,5 km/h O-NO 60 ° 0 min 13,6 °C 16,3 °C 8,5 km/h
24.09.2020 02:15 16,4 °C 83 % 0 cb 998,5 hPa 0,0 mm 6,7 km/h N-NW 335 ° 0 min 13,5 °C 16,4 °C 6,7 km/h
24.09.2020 02:10 16,4 °C 82 % 0 cb 998,5 hPa 0,3 mm 4,8 km/h W-SW 245 ° 0 min 13,3 °C 16,4 °C 4,8 km/h
24.09.2020 02:05 16,5 °C 82 % 0 cb 998,5 hPa 0,0 mm 0,6 km/h SO 125 ° 0 min 13,4 °C 16,5 °C 0,6 km/h
24.09.2020 02:00 16,6 °C 81 % 0 cb 998,5 hPa 0,0 mm 2,4 km/h N-NW 340 ° 0 min 13,3 °C 16,6 °C 2,4 km/h
24.09.2020 01:55 16,7 °C 80 % 0 cb 998,5 hPa 0,0 mm 1,2 km/h O-NO 60 ° 0 min 13,2 °C 16,7 °C 1,2 km/h
24.09.2020 01:50 16,9 °C 79 % 0 cb 998,5 hPa 0,0 mm 5,4 km/h S-SO 165 ° 0 min 13,2 °C 16,9 °C 5,4 km/h
24.09.2020 01:45 17,0 °C 78 % 0 cb 998,5 hPa 0,0 mm 6,1 km/h O 100 ° 0 min 13,1 °C 17,0 °C 6,1 km/h
24.09.2020 01:40 17,3 °C 77 % 0 cb 998,5 hPa 0,0 mm 8,5 km/h O 80 ° 0 min 13,2 °C 17,3 °C 8,5 km/h
24.09.2020 01:35 17,5 °C 77 % 0 cb 998,5 hPa 0,0 mm 8,5 km/h N-NO 25 ° 0 min 13,4 °C 17,5 °C 8,5 km/h
24.09.2020 01:30 18,0 °C 74 % 0 cb 998,5 hPa 0,6 mm 10,3 km/h W-SW 255 ° 0 min 13,3 °C 18,0 °C 10,3 km/h
24.09.2020 01:25 18,4 °C 72 % 0 cb 998,5 hPa 0,6 mm 9,7 km/h S-SW 200 ° 0 min 13,3 °C 18,4 °C 9,7 km/h
24.09.2020 01:20 19,0 °C 68 % 0 cb 998,5 hPa 0,0 mm 13,9 km/h S 190 ° 0 min 13,0 °C 19,0 °C 13,9 km/h
24.09.2020 01:15 19,1 °C 68 % 0 cb 998,5 hPa 0,0 mm 12,7 km/h S 170 ° 0 min 13,1 °C 19,1 °C 12,7 km/h
24.09.2020 01:10 19,0 °C 68 % 0 cb 998,5 hPa 0,0 mm 12,7 km/h SO 135 ° 0 min 13,0 °C 19,0 °C 12,7 km/h
24.09.2020 01:05 19,0 °C 68 % 0 cb 998,5 hPa 0,0 mm 14,5 km/h S-SO 155 ° 0 min 13,0 °C 19,0 °C 14,5 km/h
24.09.2020 01:00 19,0 °C 68 % 0 cb 998,5 hPa 0,0 mm 16,9 km/h W 260 ° 0 min 13,0 °C 19,0 °C 16,9 km/h
24.09.2020 00:55 19,3 °C 66 % 0 cb 998,5 hPa 0,0 mm 15,1 km/h S 170 ° 0 min 12,8 °C 19,3 °C 15,1 km/h
24.09.2020 00:50 19,4 °C 66 % 0 cb 998,5 hPa 0,0 mm 13,3 km/h SW 220 ° 0 min 12,9 °C 19,4 °C 13,3 km/h
24.09.2020 00:45 19,7 °C 64 % 0 cb 998,5 hPa 0,0 mm 15,7 km/h W-SW 240 ° 0 min 12,7 °C 19,7 °C 15,7 km/h
24.09.2020 00:40 19,8 °C 63 % 0 cb 998,5 hPa 0,0 mm 15,7 km/h S-SW 200 ° 0 min 12,5 °C 19,8 °C 15,7 km/h
24.09.2020 00:35 19,8 °C 63 % 0 cb 998,5 hPa 0,0 mm 18,8 km/h SW 220 ° 0 min 12,5 °C 19,8 °C 18,8 km/h
24.09.2020 00:30 19,8 °C 63 % 0 cb 998,5 hPa 0,0 mm 15,7 km/h S-SW 195 ° 0 min 12,5 °C 19,8 °C 15,7 km/h
24.09.2020 00:25 19,7 °C 63 % 0 cb 998,5 hPa 0,0 mm 14,5 km/h S-SW 200 ° 0 min 12,5 °C 19,7 °C 14,5 km/h
24.09.2020 00:20 19,6 °C 63 % 0 cb 998,5 hPa 0,0 mm 10,9 km/h N 350 ° 0 min 12,4 °C 19,6 °C 10,9 km/h
24.09.2020 00:15 19,6 °C 63 % 0 cb 998,5 hPa 0,0 mm 14,5 km/h N-NO 30 ° 0 min 12,4 °C 19,6 °C 14,5 km/h
24.09.2020 00:10 19,6 °C 63 % 0 cb 998,5 hPa 0,0 mm 9,1 km/h N-NW 345 ° 0 min 12,4 °C 19,6 °C 9,1 km/h
24.09.2020 00:05 19,5 °C 63 % 0 cb 998,5 hPa 0,0 mm 11,5 km/h S-SO 155 ° 0 min 12,3 °C 19,5 °C 11,5 km/h
24.09.2020 00:00 19,5 °C 63 % 0 cb 998,5 hPa 0,0 mm 13,9 km/h W-SW 250 ° 0 min 12,3 °C 19,5 °C 13,9 km/h
23.09.2020 23:55 19,5 °C 63 % 0 cb 998,5 hPa 0,0 mm 13,9 km/h S-SW 205 ° 0 min 12,3 °C 19,5 °C 13,9 km/h
23.09.2020 23:50 19,4 °C 63 % 0 cb 999,5 hPa 0,0 mm 9,7 km/h S-SW 205 ° 0 min 12,2 °C 19,4 °C 9,7 km/h
23.09.2020 23:45 19,4 °C 63 % 0 cb 999,5 hPa 0,0 mm 12,1 km/h N-NO 15 ° 0 min 12,2 °C 19,4 °C 12,1 km/h
23.09.2020 23:40 19,4 °C 63 % 0 cb 999,5 hPa 0,0 mm 12,7 km/h S-SW 210 ° 0 min 12,2 °C 19,4 °C 12,7 km/h
23.09.2020 23:35 19,4 °C 63 % 0 cb 999,5 hPa 0,0 mm 10,3 km/h SO 125 ° 0 min 12,2 °C 19,4 °C 10,3 km/h
23.09.2020 23:30 19,4 °C 63 % 0 cb 999,5 hPa 0,0 mm 8,5 km/h NW 310 ° 0 min 12,2 °C 19,4 °C 8,5 km/h
23.09.2020 23:25 19,4 °C 63 % 0 cb 999,5 hPa 0,0 mm 12,1 km/h W-NW 285 ° 0 min 12,2 °C 19,4 °C 12,1 km/h
23.09.2020 23:20 19,4 °C 63 % 0 cb 999,5 hPa 0,0 mm 6,7 km/h SO 130 ° 0 min 12,2 °C 19,4 °C 6,7 km/h
23.09.2020 23:15 19,5 °C 63 % 0 cb 999,5 hPa 0,0 mm 8,5 km/h O-SO 105 ° 0 min 12,3 °C 19,5 °C 8,5 km/h
23.09.2020 23:10 19,5 °C 62 % 0 cb 999,5 hPa 0,0 mm 9,7 km/h NW 310 ° 0 min 12,0 °C 19,5 °C 9,7 km/h
23.09.2020 23:05 19,5 °C 62 % 0 cb 999,5 hPa 0,0 mm 6,1 km/h N 355 ° 0 min 12,0 °C 19,5 °C 6,1 km/h
23.09.2020 23:00 19,6 °C 61 % 0 cb 999,5 hPa 0,0 mm 6,7 km/h S-SO 165 ° 0 min 11,9 °C 19,6 °C 6,7 km/h
23.09.2020 22:55 19,7 °C 60 % 0 cb 995,0 hPa 0,0 mm 7,3 km/h O 85 ° 0 min 11,7 °C 19,7 °C 7,3 km/h
23.09.2020 22:50 19,8 °C 60 % 0 cb 995,0 hPa 0,0 mm 3,6 km/h SO 140 ° 0 min 11,8 °C 19,8 °C 3,6 km/h
23.09.2020 22:45 20,0 °C 59 % 0 cb 995,0 hPa 0,0 mm 6,7 km/h SW 225 ° 0 min 11,7 °C 20,0 °C 6,7 km/h
23.09.2020 22:40 20,0 °C 59 % 0 cb 995,0 hPa 0,0 mm 9,7 km/h W 275 ° 0 min 11,7 °C 20,0 °C 9,7 km/h
23.09.2020 22:35 20,0 °C 58 % 0 cb 995,0 hPa 0,0 mm 9,1 km/h O-SO 110 ° 0 min 11,5 °C 20,0 °C 9,1 km/h
23.09.2020 22:30 20,1 °C 58 % 0 cb 995,0 hPa 0,0 mm 7,3 km/h O 80 ° 0 min 11,6 °C 20,1 °C 7,3 km/h
23.09.2020 22:25 20,2 °C 58 % 0 cb 995,0 hPa 0,0 mm 11,5 km/h S 170 ° 0 min 11,7 °C 20,2 °C 11,5 km/h
23.09.2020 22:20 20,3 °C 57 % 0 cb 995,0 hPa 0,0 mm 4,8 km/h S 190 ° 0 min 11,5 °C 20,3 °C 4,8 km/h
23.09.2020 22:15 20,4 °C 57 % 0 cb 995,0 hPa 0,0 mm 6,1 km/h O 80 ° 0 min 11,6 °C 20,4 °C 6,1 km/h
23.09.2020 22:10 20,5 °C 57 % 0 cb 995,0 hPa 0,0 mm 4,2 km/h W-NW 285 ° 0 min 11,7 °C 20,5 °C 4,2 km/h
23.09.2020 22:05 20,6 °C 56 % 0 cb 995,0 hPa 0,0 mm 7,9 km/h N-NW 330 ° 0 min 11,5 °C 20,6 °C 7,9 km/h
23.09.2020 22:00 20,6 °C 56 % 0 cb 995,0 hPa 0,0 mm 4,8 km/h SW 230 ° 0 min 11,5 °C 20,6 °C 4,8 km/h
23.09.2020 21:55 20,6 °C 56 % 0 cb 995,0 hPa 0,0 mm 9,7 km/h S-SW 195 ° 0 min 11,5 °C 20,6 °C 9,7 km/h
23.09.2020 21:50 20,6 °C 56 % 0 cb 995,0 hPa 0,0 mm 5,4 km/h W-NW 290 ° 0 min 11,5 °C 20,6 °C 5,4 km/h
23.09.2020 21:45 20,6 °C 56 % 0 cb 995,0 hPa 0,0 mm 5,4 km/h S-SW 210 ° 0 min 11,5 °C 20,6 °C 5,4 km/h
23.09.2020 21:40 20,4 °C 57 % 0 cb 995,0 hPa 0,0 mm 6,1 km/h N-NW 340 ° 0 min 11,6 °C 20,4 °C 6,1 km/h
23.09.2020 21:35 20,3 °C 57 % 0 cb 995,0 hPa 0,0 mm 3,0 km/h N-NW 330 ° 0 min 11,5 °C 20,3 °C 3,0 km/h
23.09.2020 21:30 20,4 °C 57 % 0 cb 995,0 hPa 0,0 mm 4,2 km/h S 180 ° 0 min 11,6 °C 20,4 °C 4,2 km/h
23.09.2020 21:25 20,3 °C 57 % 0 cb 996,0 hPa 0,0 mm 2,4 km/h S-SW 210 ° 0 min 11,5 °C 20,3 °C 2,4 km/h
23.09.2020 21:20 20,2 °C 57 % 0 cb 996,0 hPa 0,0 mm 4,2 km/h SW 235 ° 0 min 11,4 °C 20,2 °C 4,2 km/h
23.09.2020 21:15 20,2 °C 57 % 0 cb 996,0 hPa 0,0 mm 3,6 km/h W-SW 240 ° 0 min 11,4 °C 20,2 °C 3,6 km/h
23.09.2020 21:10 20,2 °C 57 % 0 cb 995,0 hPa 0,0 mm 3,6 km/h SW 230 ° 0 min 11,4 °C 20,2 °C 3,6 km/h
23.09.2020 21:05 20,3 °C 56 % 0 cb 995,0 hPa 0,0 mm 3,0 km/h W-NW 285 ° 0 min 11,2 °C 20,3 °C 3,0 km/h
23.09.2020 21:00 20,5 °C 56 % 0 cb 995,0 hPa 0,0 mm 2,4 km/h SW 220 ° 0 min 11,4 °C 20,5 °C 2,4 km/h
23.09.2020 20:55 20,5 °C 56 % 0 cb 996,0 hPa 0,0 mm 4,8 km/h S 175 ° 0 min 11,4 °C 20,5 °C 4,8 km/h
23.09.2020 20:50 20,5 °C 56 % 0 cb 996,0 hPa 0,0 mm 5,4 km/h SW 230 ° 0 min 11,4 °C 20,5 °C 5,4 km/h
23.09.2020 20:45 20,6 °C 56 % 0 cb 996,0 hPa 0,0 mm 5,4 km/h S 175 ° 0 min 11,5 °C 20,6 °C 5,4 km/h
23.09.2020 20:40 20,6 °C 56 % 0 cb 995,0 hPa 0,0 mm 7,3 km/h N-NO 15 ° 0 min 11,5 °C 20,6 °C 7,3 km/h
23.09.2020 20:35 20,5 °C 56 % 0 cb 995,0 hPa 0,0 mm 6,1 km/h S-SW 195 ° 0 min 11,4 °C 20,5 °C 6,1 km/h
23.09.2020 20:30 20,6 °C 56 % 0 cb 995,0 hPa 0,0 mm 3,6 km/h N-NW 340 ° 0 min 11,5 °C 20,6 °C 3,6 km/h
23.09.2020 20:25 20,7 °C 56 % 0 cb 996,0 hPa 0,0 mm 3,0 km/h NW 315 ° 0 min 11,6 °C 20,7 °C 3,0 km/h
23.09.2020 20:24 20,7 °C 56 % 0 cb 996,0 hPa 0,0 mm 3,0 km/h S-SO 160 ° 0 min 11,6 °C 20,7 °C 3,0 km/h
23.09.2020 20:20 20,8 °C 56 % 0 cb 996,0 hPa 0,0 mm 1,8 km/h N 5 ° 0 min 11,7 °C 20,8 °C 1,8 km/h
23.09.2020 20:15 21,0 °C 55 % 0 cb 1001,5 hPa 0,0 mm 1,2 km/h O-SO 110 ° 0 min 11,6 °C 21,0 °C 1,2 km/h
23.09.2020 20:10 21,2 °C 55 % 0 cb 1001,4 hPa 0,0 mm 1,2 km/h N-NW 335 ° 0 min 11,8 °C 21,2 °C 1,2 km/h
23.09.2020 20:05 21,3 °C 55 % 0 cb 1000,4 hPa 0,0 mm 3,6 km/h W-NW 285 ° 0 min 11,9 °C 21,3 °C 3,6 km/h
23.09.2020 20:00 21,4 °C 55 % 0 cb 1000,4 hPa 0,0 mm 4,2 km/h S-SO 165 ° 0 min 12,0 °C 21,4 °C 4,2 km/h
23.09.2020 19:55 21,5 °C 54 % 0 cb 1000,4 hPa 0,0 mm 4,8 km/h N-NW 335 ° 0 min 11,8 °C 21,5 °C 4,8 km/h
23.09.2020 19:50 21,6 °C 54 % 0 cb 1000,4 hPa 0,0 mm 4,8 km/h S-SW 205 ° 0 min 11,9 °C 21,6 °C 4,8 km/h
23.09.2020 19:45 21,7 °C 54 % 0 cb 1000,4 hPa 0,0 mm 6,1 km/h S-SO 160 ° 0 min 12,0 °C 21,7 °C 6,1 km/h
23.09.2020 19:40 21,8 °C 54 % 0 cb 1000,4 hPa 0,0 mm 7,9 km/h S 180 ° 0 min 12,1 °C 21,8 °C 7,9 km/h
23.09.2020 19:35 21,9 °C 53 % 0 cb 1000,4 hPa 0,0 mm 7,3 km/h NW 315 ° 0 min 11,9 °C 21,9 °C 7,3 km/h
23.09.2020 19:30 22,0 °C 53 % 0 cb 1000,4 hPa 0,0 mm 6,1 km/h N-NO 20 ° 0 min 12,0 °C 22,0 °C 6,1 km/h
23.09.2020 19:25 22,1 °C 53 % 0 cb 1000,4 hPa 0,0 mm 4,8 km/h S-SO 150 ° 0 min 12,1 °C 22,1 °C 4,8 km/h
23.09.2020 19:20 22,2 °C 53 % 0 cb 1001,4 hPa 0,0 mm 7,9 km/h N-NO 30 ° 0 min 12,2 °C 22,2 °C 7,9 km/h
23.09.2020 19:15 22,3 °C 53 % 0 cb 1001,4 hPa 0,0 mm 9,7 km/h SW 220 ° 0 min 12,2 °C 22,3 °C 9,7 km/h
23.09.2020 19:10 22,3 °C 53 % 0 cb 1001,4 hPa 0,0 mm 13,3 km/h SW 235 ° 0 min 12,2 °C 22,3 °C 13,3 km/h
23.09.2020 19:05 22,4 °C 53 % 0 cb 1001,4 hPa 0,0 mm 5,4 km/h O 95 ° 0 min 12,3 °C 22,4 °C 5,4 km/h
23.09.2020 19:00 22,4 °C 53 % 0 cb 1001,4 hPa 0,0 mm 4,2 km/h SW 215 ° 0 min 12,3 °C 22,4 °C 4,2 km/h
23.09.2020 18:55 22,5 °C 53 % 0 cb 1001,4 hPa 0,0 mm 7,9 km/h S-SO 150 ° 0 min 12,4 °C 22,5 °C 7,9 km/h
23.09.2020 18:50 22,5 °C 53 % 0 cb 1001,4 hPa 0,0 mm 6,7 km/h O-NO 65 ° 0 min 12,4 °C 22,5 °C 6,7 km/h
23.09.2020 18:45 22,6 °C 53 % 0 cb 1001,4 hPa 0,0 mm 4,8 km/h O 80 ° 0 min 12,5 °C 22,6 °C 4,8 km/h
23.09.2020 18:40 22,7 °C 53 % 0 cb 1001,4 hPa 0,0 mm 5,4 km/h S-SW 210 ° 0 min 12,6 °C 22,7 °C 5,4 km/h
23.09.2020 18:35 22,7 °C 52 % 0 cb 1001,4 hPa 0,0 mm 6,1 km/h O 85 ° 0 min 12,3 °C 22,7 °C 6,1 km/h
23.09.2020 18:30 22,8 °C 53 % 0 cb 1001,4 hPa 0,0 mm 4,2 km/h W 280 ° 0 min 12,7 °C 22,8 °C 4,2 km/h
23.09.2020 18:25 22,8 °C 52 % 0 cb 1001,4 hPa 0,0 mm 4,2 km/h O-SO 110 ° 0 min 12,4 °C 22,8 °C 4,2 km/h
23.09.2020 18:20 22,9 °C 52 % 0 cb 1001,4 hPa 0,0 mm 7,9 km/h SW 230 ° 0 min 12,5 °C 22,9 °C 7,9 km/h
23.09.2020 18:15 23,0 °C 51 % 0 cb 1001,4 hPa 0,0 mm 6,7 km/h S-SW 200 ° 0 min 12,3 °C 23,0 °C 6,7 km/h
23.09.2020 18:10 23,0 °C 51 % 0 cb 1001,4 hPa 0,0 mm 7,3 km/h W-NW 285 ° 0 min 12,3 °C 23,0 °C 7,3 km/h
23.09.2020 18:05 23,1 °C 51 % 0 cb 1001,4 hPa 0,0 mm 13,9 km/h SO 125 ° 0 min 12,4 °C 23,1 °C 13,9 km/h
23.09.2020 18:00 23,2 °C 51 % 0 cb 1001,4 hPa 0,0 mm 6,7 km/h NW 320 ° 0 min 12,5 °C 23,2 °C 6,7 km/h
23.09.2020 17:55 23,3 °C 51 % 0 cb 1001,4 hPa 0,0 mm 6,1 km/h W 280 ° 0 min 12,6 °C 23,3 °C 6,1 km/h
23.09.2020 17:50 23,3 °C 51 % 0 cb 1001,4 hPa 0,0 mm 7,3 km/h NW 325 ° 0 min 12,6 °C 23,3 °C 7,3 km/h
23.09.2020 17:45 23,4 °C 51 % 0 cb 1001,4 hPa 0,0 mm 10,3 km/h W-NW 295 ° 0 min 12,7 °C 23,4 °C 10,3 km/h
23.09.2020 17:40 23,5 °C 50 % 0 cb 1001,4 hPa 0,0 mm 5,4 km/h O-SO 110 ° 0 min 12,5 °C 23,5 °C 5,4 km/h
23.09.2020 17:35 23,6 °C 50 % 0 cb 1001,4 hPa 0,0 mm 6,7 km/h W-SW 255 ° 0 min 12,6 °C 23,6 °C 6,7 km/h
23.09.2020 17:30 23,6 °C 50 % 0 cb 1001,4 hPa 0,0 mm 6,1 km/h NW 310 ° 0 min 12,6 °C 23,6 °C 6,1 km/h
23.09.2020 17:25 23,7 °C 49 % 0 cb 1001,4 hPa 0,0 mm 14,5 km/h S 190 ° 0 min 12,3 °C 23,7 °C 14,5 km/h
23.09.2020 17:20 23,8 °C 49 % 0 cb 1002,4 hPa 0,0 mm 16,9 km/h W-NW 295 ° 0 min 12,4 °C 23,8 °C 16,9 km/h
23.09.2020 17:15 23,9 °C 50 % 0 cb 1002,4 hPa 0,0 mm 14,5 km/h S-SO 165 ° 0 min 12,8 °C 23,9 °C 14,5 km/h
23.09.2020 17:10 24,0 °C 49 % 0 cb 1002,4 hPa 0,0 mm 15,1 km/h S 190 ° 0 min 12,6 °C 24,0 °C 15,1 km/h
23.09.2020 17:05 24,6 °C 49 % 1 cb 1001,4 hPa 0,0 mm 14,5 km/h N 5 ° 1 min 13,2 °C 24,6 °C 14,5 km/h
23.09.2020 17:00 24,7 °C 48 % 2 cb 1001,4 hPa 0,0 mm 12,7 km/h N-NO 20 ° 2 min 12,9 °C 24,7 °C 12,7 km/h
23.09.2020 16:55 25,2 °C 48 % 5 cb 1001,4 hPa 0,0 mm 14,5 km/h SO 140 ° 5 min 13,4 °C 25,2 °C 14,5 km/h
23.09.2020 16:50 25,0 °C 48 % 5 cb 1002,4 hPa 0,0 mm 9,7 km/h W-NW 300 ° 5 min 13,2 °C 25,0 °C 9,7 km/h
23.09.2020 16:45 24,8 °C 48 % 5 cb 1002,4 hPa 0,0 mm 13,3 km/h W 280 ° 5 min 13,0 °C 24,8 °C 13,3 km/h
23.09.2020 16:40 24,6 °C 48 % 3 cb 1002,4 hPa 0,0 mm 11,5 km/h S 170 ° 3 min 12,8 °C 24,6 °C 11,5 km/h
23.09.2020 16:35 24,9 °C 48 % 3 cb 1001,4 hPa 0,0 mm 13,3 km/h S 170 ° 3 min 13,1 °C 24,9 °C 13,3 km/h
23.09.2020 16:30 24,5 °C 50 % 5 cb 1001,4 hPa 0,0 mm 12,7 km/h W-SW 250 ° 5 min 13,4 °C 24,5 °C 12,7 km/h
23.09.2020 16:25 24,2 °C 50 % 5 cb 1001,4 hPa 0,0 mm 11,5 km/h W 260 ° 5 min 13,1 °C 24,2 °C 11,5 km/h
23.09.2020 16:20 24,0 °C 50 % 3 cb 1002,4 hPa 0,0 mm 12,1 km/h W-SW 250 ° 3 min 12,9 °C 24,0 °C 12,1 km/h
23.09.2020 16:15 24,2 °C 49 % 0 cb 1002,4 hPa 0,0 mm 9,1 km/h O-NO 70 ° 0 min 12,8 °C 24,2 °C 9,1 km/h
23.09.2020 16:10 24,6 °C 49 % 1 cb 1002,4 hPa 0,0 mm 8,5 km/h W 265 ° 1 min 13,2 °C 24,6 °C 8,5 km/h
23.09.2020 16:05 24,7 °C 48 % 5 cb 1002,4 hPa 0,0 mm 18,2 km/h S-SW 195 ° 5 min 12,9 °C 24,7 °C 18,2 km/h
23.09.2020 16:00 25,0 °C 48 % 6 cb 1002,4 hPa 0,0 mm 11,5 km/h NW 310 ° 6 min 13,2 °C 25,0 °C 11,5 km/h
23.09.2020 15:55 24,7 °C 48 % 4 cb 1002,4 hPa 0,0 mm 14,5 km/h W-NW 290 ° 4 min 12,9 °C 24,7 °C 14,5 km/h
23.09.2020 15:50 24,6 °C 49 % 6 cb 1002,4 hPa 0,0 mm 7,3 km/h SO 145 ° 6 min 13,2 °C 24,6 °C 7,3 km/h
23.09.2020 15:45 24,7 °C 48 % 1 cb 1002,4 hPa 0,0 mm 9,7 km/h NW 315 ° 1 min 12,9 °C 24,7 °C 9,7 km/h
23.09.2020 15:40 24,6 °C 49 % 6 cb 1002,4 hPa 0,0 mm 19,4 km/h S 175 ° 6 min 13,2 °C 24,6 °C 19,4 km/h
23.09.2020 15:35 24,9 °C 48 % 3 cb 1002,4 hPa 0,0 mm 9,1 km/h S-SO 165 ° 3 min 13,1 °C 24,9 °C 9,1 km/h
23.09.2020 15:30 25,1 °C 48 % 4 cb 1002,4 hPa 0,0 mm 12,1 km/h S 185 ° 4 min 13,3 °C 25,1 °C 12,1 km/h
23.09.2020 15:25 25,1 °C 48 % 6 cb 1002,4 hPa 0,0 mm 9,7 km/h S-SO 155 ° 6 min 13,3 °C 25,1 °C 9,7 km/h
23.09.2020 15:20 25,0 °C 49 % 4 cb 1003,4 hPa 0,0 mm 15,1 km/h W-SW 255 ° 4 min 13,5 °C 25,0 °C 15,1 km/h
23.09.2020 15:15 25,5 °C 49 % 6 cb 1003,4 hPa 0,0 mm 10,3 km/h W 265 ° 6 min 14,0 °C 25,5 °C 10,3 km/h
23.09.2020 15:10 25,4 °C 49 % 7 cb 1003,4 hPa 0,0 mm 10,9 km/h W-SW 250 ° 7 min 13,9 °C 25,4 °C 10,9 km/h
23.09.2020 15:05 25,1 °C 50 % 2 cb 1003,4 hPa 0,0 mm 14,5 km/h O 100 ° 2 min 13,9 °C 25,1 °C 14,5 km/h
23.09.2020 15:00 24,9 °C 51 % 5 cb 1003,4 hPa 0,0 mm 11,5 km/h S-SO 155 ° 5 min 14,1 °C 24,9 °C 11,5 km/h
23.09.2020 14:55 24,9 °C 51 % 5 cb 1003,4 hPa 0,0 mm 8,5 km/h S-SW 205 ° 5 min 14,1 °C 24,9 °C 8,5 km/h
23.09.2020 14:50 24,2 °C 52 % 5 cb 1003,4 hPa 0,0 mm 8,5 km/h N-NW 335 ° 5 min 13,7 °C 24,2 °C 8,5 km/h
23.09.2020 14:45 23,9 °C 53 % 8 cb 1003,4 hPa 0,0 mm 12,1 km/h NW 315 ° 8 min 13,7 °C 23,9 °C 12,1 km/h
23.09.2020 14:40 24,1 °C 53 % 3 cb 1003,4 hPa 0,0 mm 12,7 km/h S 185 ° 3 min 13,9 °C 24,1 °C 12,7 km/h
23.09.2020 14:35 23,7 °C 53 % 4 cb 1003,4 hPa 0,0 mm 13,3 km/h W-NW 290 ° 4 min 13,5 °C 23,7 °C 13,3 km/h
23.09.2020 14:30 23,8 °C 52 % 6 cb 1003,4 hPa 0,0 mm 18,8 km/h SW 215 ° 6 min 13,3 °C 23,8 °C 18,8 km/h
23.09.2020 14:25 23,7 °C 53 % 4 cb 1003,4 hPa 0,0 mm 10,3 km/h W 260 ° 4 min 13,5 °C 23,7 °C 10,3 km/h
23.09.2020 14:20 23,8 °C 54 % 6 cb 1003,4 hPa 0,0 mm 8,5 km/h O-SO 105 ° 6 min 13,9 °C 23,8 °C 8,5 km/h
23.09.2020 14:15 23,4 °C 55 % 5 cb 1003,4 hPa 0,0 mm 8,5 km/h W-NW 285 ° 5 min 13,8 °C 23,4 °C 8,5 km/h
23.09.2020 14:10 23,0 °C 54 % 5 cb 1003,4 hPa 0,0 mm 13,3 km/h W 275 ° 5 min 13,2 °C 23,0 °C 13,3 km/h
23.09.2020 14:05 23,1 °C 55 % 5 cb 1003,4 hPa 0,0 mm 7,3 km/h O 80 ° 5 min 13,6 °C 23,1 °C 7,3 km/h
23.09.2020 14:00 22,8 °C 55 % 4 cb 1003,4 hPa 0,0 mm 8,5 km/h SW 220 ° 4 min 13,3 °C 22,8 °C 8,5 km/h
23.09.2020 13:55 22,9 °C 54 % 0 cb 1003,4 hPa 0,0 mm 10,9 km/h S-SO 150 ° 0 min 13,1 °C 22,9 °C 10,9 km/h
23.09.2020 13:50 23,3 °C 53 % 0 cb 1003,4 hPa 0,0 mm 9,1 km/h NW 305 ° 0 min 13,2 °C 23,3 °C 9,1 km/h
23.09.2020 13:45 23,5 °C 53 % 2 cb 1003,4 hPa 0,0 mm 9,7 km/h W-NW 290 ° 2 min 13,4 °C 23,5 °C 9,7 km/h
23.09.2020 13:40 23,9 °C 51 % 5 cb 1003,4 hPa 0,0 mm 13,3 km/h SW 225 ° 5 min 13,1 °C 23,9 °C 13,3 km/h
23.09.2020 13:35 24,4 °C 50 % 5 cb 1003,4 hPa 0,0 mm 10,9 km/h W-NW 300 ° 5 min 13,3 °C 24,4 °C 10,9 km/h
23.09.2020 13:30 24,4 °C 51 % 4 cb 1003,4 hPa 0,0 mm 7,3 km/h S-SW 210 ° 4 min 13,6 °C 24,4 °C 7,3 km/h
23.09.2020 13:25 23,9 °C 52 % 6 cb 1003,4 hPa 0,0 mm 7,3 km/h W-NW 295 ° 6 min 13,4 °C 23,9 °C 7,3 km/h
23.09.2020 13:20 23,8 °C 51 % 5 cb 1003,4 hPa 0,0 mm 13,3 km/h S 180 ° 5 min 13,0 °C 23,8 °C 13,3 km/h
23.09.2020 13:15 23,7 °C 51 % 5 cb 1003,4 hPa 0,0 mm 10,3 km/h S-SW 195 ° 5 min 13,0 °C 23,7 °C 10,3 km/h
23.09.2020 13:10 24,0 °C 50 % 5 cb 1003,4 hPa 0,0 mm 5,4 km/h O 85 ° 5 min 12,9 °C 24,0 °C 5,4 km/h
23.09.2020 13:05 23,9 °C 51 % 5 cb 1004,4 hPa 0,0 mm 6,1 km/h SW 225 ° 5 min 13,1 °C 23,9 °C 6,1 km/h
23.09.2020 13:00 23,5 °C 51 % 5 cb 1004,4 hPa 0,0 mm 7,3 km/h SW 235 ° 5 min 12,8 °C 23,5 °C 7,3 km/h
23.09.2020 12:55 23,4 °C 52 % 5 cb 1004,4 hPa 0,0 mm 4,2 km/h NW 325 ° 5 min 13,0 °C 23,4 °C 4,2 km/h
23.09.2020 12:50 22,7 °C 53 % 6 cb 1004,4 hPa 0,0 mm 9,7 km/h W 275 ° 6 min 12,6 °C 22,7 °C 9,7 km/h
23.09.2020 12:45 22,7 °C 53 % 4 cb 1004,4 hPa 0,0 mm 4,2 km/h W-SW 245 ° 4 min 12,6 °C 22,7 °C 4,2 km/h
23.09.2020 12:40 22,7 °C 53 % 5 cb 1004,4 hPa 0,0 mm 7,3 km/h S 170 ° 5 min 12,6 °C 22,7 °C 7,3 km/h
23.09.2020 12:35 22,6 °C 53 % 3 cb 1005,4 hPa 0,0 mm 4,8 km/h NO 45 ° 3 min 12,5 °C 22,6 °C 4,8 km/h
23.09.2020 12:30 22,2 °C 53 % 8 cb 1005,5 hPa 0,0 mm 6,7 km/h W 280 ° 8 min 12,2 °C 22,2 °C 6,7 km/h
23.09.2020 12:25 22,0 °C 54 % 2 cb 1005,5 hPa 0,0 mm 12,1 km/h N 350 ° 2 min 12,3 °C 22,0 °C 12,1 km/h
23.09.2020 12:20 22,1 °C 54 % 5 cb 1004,4 hPa 0,0 mm 5,4 km/h S 170 ° 5 min 12,3 °C 22,1 °C 5,4 km/h
23.09.2020 12:15 21,8 °C 55 % 5 cb 1004,5 hPa 0,0 mm 6,7 km/h S 185 ° 5 min 12,4 °C 21,8 °C 6,7 km/h
23.09.2020 12:10 21,2 °C 55 % 5 cb 1004,5 hPa 0,0 mm 7,9 km/h N-NO 25 ° 5 min 11,8 °C 21,2 °C 7,9 km/h
23.09.2020 12:05 21,0 °C 56 % 6 cb 1005,5 hPa 0,0 mm 6,1 km/h SW 230 ° 6 min 11,9 °C 21,0 °C 6,1 km/h
23.09.2020 12:00 20,7 °C 56 % 5 cb 1005,5 hPa 0,0 mm 4,2 km/h S 185 ° 5 min 11,6 °C 20,7 °C 4,2 km/h
_ Min-Zeit 08:05 17:00 09:55 22:55 - 02:05 - - - 08:15 08:05 02:05
Minimum _ 12,4 °C 48 % 0 cb 995,0 hPa - 0,6 km/h - - - 9,1 °C 12,4 °C 0,6 km/h
_ Max-Zeit 15:15 03:15 14:45 12:30 01:25 03:50 - - 14:45 15:00 15:15 03:50
Maximum _ 25,5 °C 85 % 8 cb 1005,5 hPa 0,6 mm 26,0 km/h
O
- - 8 min 14,1 °C 25,5 °C 26,0 km/h
O
Durchschnitt _ 19,0 °C 64 % 2 cb 1000,3 hPa #2,7 mm 8,6 km/h S - #2:30 h 11,7 °C 19,0 °C 8,6 km/h
H.Kloepper